sensor_id;sensor_type;location;lat;lon;timestamp;pressure;altitude;pressure_sealevel;temperature;humidity
72414;BME280;60995;52.154;4.498;2023-09-30T00:00:01;104806.84;;;14.38;100.00
72414;BME280;60995;52.154;4.498;2023-09-30T00:02:18;104816.94;;;14.36;100.00
72414;BME280;60995;52.154;4.498;2023-09-30T00:04:34;104830.88;;;14.30;100.00
72414;BME280;60995;52.154;4.498;2023-09-30T00:06:51;104838.38;;;14.25;100.00
72414;BME280;60995;52.154;4.498;2023-09-30T00:09:07;104849.34;;;14.23;100.00
72414;BME280;60995;52.154;4.498;2023-09-30T00:11:23;104897.75;;;14.20;100.00
72414;BME280;60995;52.154;4.498;2023-09-30T00:13:39;104869.34;;;14.02;100.00
72414;BME280;60995;52.154;4.498;2023-09-30T00:15:55;104876.31;;;14.09;100.00
72414;BME280;60995;52.154;4.498;2023-09-30T00:18:12;104913.09;;;14.00;100.00
72414;BME280;60995;52.154;4.498;2023-09-30T00:20:29;104908.53;;;14.01;100.00
72414;BME280;60995;52.154;4.498;2023-09-30T00:22:45;104949.41;;;14.02;100.00
72414;BME280;60995;52.154;4.498;2023-09-30T00:25:01;104951.56;;;13.94;100.00
72414;BME280;60995;52.154;4.498;2023-09-30T00:27:18;104982.97;;;13.82;100.00
72414;BME280;60995;52.154;4.498;2023-09-30T00:29:34;105110.06;;;13.91;100.00
72414;BME280;60995;52.154;4.498;2023-09-30T00:31:51;105095.69;;;13.86;100.00
72414;BME280;60995;52.154;4.498;2023-09-30T00:34:07;105141.69;;;13.97;100.00
72414;BME280;60995;52.154;4.498;2023-09-30T00:36:24;105151.28;;;14.09;100.00
72414;BME280;60995;52.154;4.498;2023-09-30T00:38:40;105163.34;;;14.03;100.00
72414;BME280;60995;52.154;4.498;2023-09-30T00:40:56;105168.56;;;14.09;100.00
72414;BME280;60995;52.154;4.498;2023-09-30T00:43:20;105173.59;;;13.96;100.00
72414;BME280;60995;52.154;4.498;2023-09-30T00:45:37;105250.94;;;13.97;100.00
72414;BME280;60995;52.154;4.498;2023-09-30T00:47:55;105287.84;;;14.09;100.00
72414;BME280;60995;52.154;4.498;2023-09-30T00:50:11;105242.56;;;14.01;100.00
72414;BME280;60995;52.154;4.498;2023-09-30T00:52:31;105184.53;;;13.95;100.00
72414;BME280;60995;52.154;4.498;2023-09-30T00:54:50;105226.34;;;13.97;100.00
72414;BME280;60995;52.154;4.498;2023-09-30T00:57:10;105232.34;;;14.08;100.00
72414;BME280;60995;52.154;4.498;2023-09-30T00:59:29;105201.09;;;13.90;100.00
72414;BME280;60995;52.154;4.498;2023-09-30T01:01:48;105186.09;;;13.77;100.00
72414;BME280;60995;52.154;4.498;2023-09-30T01:04:05;105266.19;;;13.76;100.00
72414;BME280;60995;52.154;4.498;2023-09-30T01:06:22;105235.47;;;13.69;100.00
72414;BME280;60995;52.154;4.498;2023-09-30T01:08:38;105266.94;;;13.81;100.00
72414;BME280;60995;52.154;4.498;2023-09-30T01:10:55;105254.53;;;13.70;100.00
72414;BME280;60995;52.154;4.498;2023-09-30T01:13:12;105298.28;;;13.67;100.00
72414;BME280;60995;52.154;4.498;2023-09-30T01:15:29;105294.72;;;13.65;100.00
72414;BME280;60995;52.154;4.498;2023-09-30T01:17:45;105291.31;;;13.57;100.00
72414;BME280;60995;52.154;4.498;2023-09-30T01:20:01;105356.16;;;13.49;100.00
72414;BME280;60995;52.154;4.498;2023-09-30T01:22:22;105358.72;;;13.55;100.00
72414;BME280;60995;52.154;4.498;2023-09-30T01:24:40;105449.34;;;13.98;100.00
72414;BME280;60995;52.154;4.498;2023-09-30T01:26:57;105406.53;;;13.98;100.00
72414;BME280;60995;52.154;4.498;2023-09-30T01:29:13;105342.19;;;13.89;100.00
72414;BME280;60995;52.154;4.498;2023-09-30T01:31:29;105225.25;;;13.76;100.00
72414;BME280;60995;52.154;4.498;2023-09-30T01:33:46;105298.09;;;13.73;100.00
72414;BME280;60995;52.154;4.498;2023-09-30T01:36:02;105280.28;;;13.62;100.00
72414;BME280;60995;52.154;4.498;2023-09-30T01:38:19;105294.72;;;13.65;100.00
72414;BME280;60995;52.154;4.498;2023-09-30T01:40:36;105288.34;;;13.66;100.00
72414;BME280;60995;52.154;4.498;2023-09-30T01:42:53;105331.16;;;13.64;100.00
72414;BME280;60995;52.154;4.498;2023-09-30T01:45:09;105372.09;;;13.64;100.00
72414;BME280;60995;52.154;4.498;2023-09-30T01:47:26;105390.09;;;13.71;100.00
72414;BME280;60995;52.154;4.498;2023-09-30T01:49:42;105447.41;;;13.71;100.00
72414;BME280;60995;52.154;4.498;2023-09-30T01:51:58;105556.34;;;13.81;100.00
72414;BME280;60995;52.154;4.498;2023-09-30T01:54:15;105561.81;;;13.81;100.00
72414;BME280;60995;52.154;4.498;2023-09-30T01:56:31;105553.34;;;13.90;100.00
72414;BME280;60995;52.154;4.498;2023-09-30T01:58:47;105546.22;;;13.84;100.00
72414;BME280;60995;52.154;4.498;2023-09-30T02:01:04;105549.91;;;13.83;100.00
72414;BME280;60995;52.154;4.498;2023-09-30T02:03:20;105588.75;;;13.93;100.00
72414;BME280;60995;52.154;4.498;2023-09-30T02:05:38;105528.06;;;13.82;100.00
72414;BME280;60995;52.154;4.498;2023-09-30T02:07:55;105587.16;;;13.86;100.00
72414;BME280;60995;52.154;4.498;2023-09-30T02:10:12;105880.91;;;13.96;100.00
72414;BME280;60995;52.154;4.498;2023-09-30T02:12:28;105856.34;;;13.96;100.00
72414;BME280;60995;52.154;4.498;2023-09-30T02:14:44;105850.97;;;13.92;100.00
72414;BME280;60995;52.154;4.498;2023-09-30T02:17:02;105898.06;;;14.01;100.00
72414;BME280;60995;52.154;4.498;2023-09-30T02:19:19;105918.94;;;14.04;100.00
72414;BME280;60995;52.154;4.498;2023-09-30T02:21:35;105883.69;;;13.93;100.00
72414;BME280;60995;52.154;4.498;2023-09-30T02:23:52;105905.38;;;14.01;100.00
72414;BME280;60995;52.154;4.498;2023-09-30T02:26:10;105886.94;;;14.11;100.00
72414;BME280;60995;52.154;4.498;2023-09-30T02:28:27;105892.41;;;14.09;100.00
72414;BME280;60995;52.154;4.498;2023-09-30T02:30:43;105893.88;;;14.24;100.00
72414;BME280;60995;52.154;4.498;2023-09-30T02:32:59;105856.75;;;14.15;100.00
72414;BME280;60995;52.154;4.498;2023-09-30T02:35:16;105777.47;;;14.17;100.00
72414;BME280;60995;52.154;4.498;2023-09-30T02:37:33;105851.59;;;14.03;100.00
72414;BME280;60995;52.154;4.498;2023-09-30T02:39:53;105861.47;;;14.09;100.00
72414;BME280;60995;52.154;4.498;2023-09-30T02:42:09;105966.50;;;14.34;100.00
72414;BME280;60995;52.154;4.498;2023-09-30T02:44:26;105928.94;;;14.43;100.00
72414;BME280;60995;52.154;4.498;2023-09-30T02:46:42;105869.50;;;14.51;100.00
72414;BME280;60995;52.154;4.498;2023-09-30T02:49:00;105827.56;;;14.52;100.00
72414;BME280;60995;52.154;4.498;2023-09-30T02:51:17;105740.47;;;14.39;100.00
72414;BME280;60995;52.154;4.498;2023-09-30T02:53:33;105813.31;;;14.41;100.00
72414;BME280;60995;52.154;4.498;2023-09-30T02:55:49;105845.81;;;14.51;100.00
72414;BME280;60995;52.154;4.498;2023-09-30T02:58:11;105848.41;;;14.56;100.00
72414;BME280;60995;52.154;4.498;2023-09-30T03:00:28;105823.13;;;14.48;100.00
72414;BME280;60995;52.154;4.498;2023-09-30T03:02:52;105892.91;;;14.64;100.00
72414;BME280;60995;52.154;4.498;2023-09-30T03:05:09;105845.88;;;14.48;100.00
72414;BME280;60995;52.154;4.498;2023-09-30T03:07:26;105849.53;;;14.49;100.00
72414;BME280;60995;52.154;4.498;2023-09-30T03:09:42;105846.66;;;14.55;100.00
72414;BME280;60995;52.154;4.498;2023-09-30T03:11:58;105829.22;;;14.59;100.00
72414;BME280;60995;52.154;4.498;2023-09-30T03:14:15;105852.06;;;14.56;100.00
72414;BME280;60995;52.154;4.498;2023-09-30T03:16:31;105821.28;;;14.48;100.00
72414;BME280;60995;52.154;4.498;2023-09-30T03:18:48;105855.00;;;14.49;100.00
72414;BME280;60995;52.154;4.498;2023-09-30T03:21:13;105848.47;;;14.54;100.00
72414;BME280;60995;52.154;4.498;2023-09-30T03:23:30;105886.69;;;14.56;100.00
72414;BME280;60995;52.154;4.498;2023-09-30T03:25:46;105877.50;;;14.59;100.00
72414;BME280;60995;52.154;4.498;2023-09-30T03:28:03;105905.91;;;14.53;100.00
72414;BME280;60995;52.154;4.498;2023-09-30T03:30:22;105958.53;;;14.64;100.00
72414;BME280;60995;52.154;4.498;2023-09-30T03:32:38;105961.88;;;14.76;100.00
72414;BME280;60995;52.154;4.498;2023-09-30T03:34:55;105959.44;;;14.63;100.00
72414;BME280;60995;52.154;4.498;2023-09-30T03:37:15;105958.53;;;14.64;100.00
72414;BME280;60995;52.154;4.498;2023-09-30T03:39:32;105857.44;;;14.60;100.00
72414;BME280;60995;52.154;4.498;2023-09-30T03:41:48;105925.78;;;14.60;100.00
72414;BME280;60995;52.154;4.498;2023-09-30T03:44:05;105837.38;;;14.61;100.00
72414;BME280;60995;52.154;4.498;2023-09-30T03:46:22;105971.03;;;14.75;100.00
72414;BME280;60995;52.154;4.498;2023-09-30T03:48:38;105960.88;;;14.78;100.00
72414;BME280;60995;52.154;4.498;2023-09-30T03:51:10;105896.41;;;14.69;100.00
72414;BME280;60995;52.154;4.498;2023-09-30T03:53:30;105828.19;;;14.65;100.00
72414;BME280;60995;52.154;4.498;2023-09-30T03:55:46;105932.00;;;14.68;100.00
72414;BME280;60995;52.154;4.498;2023-09-30T03:58:03;105946.47;;;14.71;100.00
72414;BME280;60995;52.154;4.498;2023-09-30T04:00:20;105961.97;;;14.72;100.00
72414;BME280;60995;52.154;4.498;2023-09-30T04:02:37;105905.66;;;14.65;100.00
72414;BME280;60995;52.154;4.498;2023-09-30T04:04:53;105945.66;;;14.69;100.00
72414;BME280;60995;52.154;4.498;2023-09-30T04:07:12;105958.59;;;14.60;100.00
72414;BME280;60995;52.154;4.498;2023-09-30T04:09:29;105901.38;;;14.52;100.00
72414;BME280;60995;52.154;4.498;2023-09-30T04:11:45;105933.34;;;14.50;100.00
72414;BME280;60995;52.154;4.498;2023-09-30T04:14:03;105960.44;;;14.59;100.00
72414;BME280;60995;52.154;4.498;2023-09-30T04:16:21;105933.09;;;14.59;100.00
72414;BME280;60995;52.154;4.498;2023-09-30T04:18:44;106017.78;;;14.64;100.00
72414;BME280;60995;52.154;4.498;2023-09-30T04:21:02;106042.03;;;14.78;100.00
72414;BME280;60995;52.154;4.498;2023-09-30T04:23:18;106009.09;;;14.84;100.00
72414;BME280;60995;52.154;4.498;2023-09-30T04:25:38;106065.50;;;14.88;100.00
72414;BME280;60995;52.154;4.498;2023-09-30T04:27:54;106018.91;;;14.91;100.00
72414;BME280;60995;52.154;4.498;2023-09-30T04:30:10;106249.91;;;15.18;100.00
72414;BME280;60995;52.154;4.498;2023-09-30T04:32:27;106202.19;;;15.32;100.00
72414;BME280;60995;52.154;4.498;2023-09-30T04:34:43;106126.84;;;15.15;100.00
72414;BME280;60995;52.154;4.498;2023-09-30T04:36:59;106023.31;;;14.98;100.00
72414;BME280;60995;52.154;4.498;2023-09-30T04:39:16;106087.06;;;15.00;100.00
72414;BME280;60995;52.154;4.498;2023-09-30T04:41:32;106073.47;;;14.97;100.00
72414;BME280;60995;52.154;4.498;2023-09-30T04:43:48;106025.41;;;14.87;100.00
72414;BME280;60995;52.154;4.498;2023-09-30T04:46:06;106012.75;;;14.83;100.00
72414;BME280;60995;52.154;4.498;2023-09-30T04:48:24;105994.59;;;14.80;100.00
72414;BME280;60995;52.154;4.498;2023-09-30T04:50:41;106025.56;;;14.81;100.00
72414;BME280;60995;52.154;4.498;2023-09-30T04:52:57;106032.69;;;14.88;100.00
72414;BME280;60995;52.154;4.498;2023-09-30T04:55:14;106018.06;;;14.89;100.00
72414;BME280;60995;52.154;4.498;2023-09-30T04:57:32;106015.28;;;14.91;100.00
72414;BME280;60995;52.154;4.498;2023-09-30T04:59:48;106026.34;;;14.86;100.00
72414;BME280;60995;52.154;4.498;2023-09-30T05:02:04;106033.81;;;14.79;100.00
72414;BME280;60995;52.154;4.498;2023-09-30T05:04:21;106014.00;;;14.69;100.00
72414;BME280;60995;52.154;4.498;2023-09-30T05:06:39;106000.66;;;14.54;100.00
72414;BME280;60995;52.154;4.498;2023-09-30T05:08:55;105982.69;;;14.44;100.00
72414;BME280;60995;52.154;4.498;2023-09-30T05:11:11;105984.69;;;14.37;100.00
72414;BME280;60995;52.154;4.498;2023-09-30T05:13:28;105976.72;;;14.26;100.00
72414;BME280;60995;52.154;4.498;2023-09-30T05:15:44;105978.59;;;14.24;100.00
72414;BME280;60995;52.154;4.498;2023-09-30T05:18:00;105954.78;;;14.29;100.00
72414;BME280;60995;52.154;4.498;2023-09-30T05:20:17;105889.06;;;14.34;100.00
72414;BME280;60995;52.154;4.498;2023-09-30T05:22:33;106055.13;;;14.63;100.00
72414;BME280;60995;52.154;4.498;2023-09-30T05:24:53;106064.13;;;14.70;100.00
72414;BME280;60995;52.154;4.498;2023-09-30T05:27:12;106066.00;;;14.66;100.00
72414;BME280;60995;52.154;4.498;2023-09-30T05:29:29;106018.78;;;14.58;100.00
72414;BME280;60995;52.154;4.498;2023-09-30T05:31:48;105915.00;;;14.55;100.00
72414;BME280;60995;52.154;4.498;2023-09-30T05:34:05;105974.25;;;14.53;100.00
72414;BME280;60995;52.154;4.498;2023-09-30T05:36:21;105948.03;;;14.46;100.00
72414;BME280;60995;52.154;4.498;2023-09-30T05:38:38;105948.72;;;14.54;100.00
72414;BME280;60995;52.154;4.498;2023-09-30T05:40:54;106029.34;;;14.75;100.00
72414;BME280;60995;52.154;4.498;2023-09-30T05:43:11;106048.78;;;14.63;100.00
72414;BME280;60995;52.154;4.498;2023-09-30T05:45:33;106028.06;;;14.51;100.00
72414;BME280;60995;52.154;4.498;2023-09-30T05:47:50;106003.53;;;14.48;100.00
72414;BME280;60995;52.154;4.498;2023-09-30T05:50:08;105994.31;;;14.52;100.00
72414;BME280;60995;52.154;4.498;2023-09-30T05:52:25;106025.13;;;14.60;100.00
72414;BME280;60995;52.154;4.498;2023-09-30T05:54:41;106015.91;;;14.66;100.00
72414;BME280;60995;52.154;4.498;2023-09-30T05:56:57;106109.13;;;14.94;100.00
72414;BME280;60995;52.154;4.498;2023-09-30T05:59:14;106089.91;;;14.97;100.00
72414;BME280;60995;52.154;4.498;2023-09-30T06:01:30;106044.22;;;15.01;100.00
72414;BME280;60995;52.154;4.498;2023-09-30T06:03:50;106037.63;;;15.10;100.00
72414;BME280;60995;52.154;4.498;2023-09-30T06:06:13;106031.13;;;15.14;100.00
72414;BME280;60995;52.154;4.498;2023-09-30T06:08:31;106039.06;;;15.23;100.00
72414;BME280;60995;52.154;4.498;2023-09-30T06:10:48;106073.53;;;15.30;100.00
72414;BME280;60995;52.154;4.498;2023-09-30T06:13:04;106088.19;;;15.28;100.00
72414;BME280;60995;52.154;4.498;2023-09-30T06:15:22;106083.66;;;15.28;100.00
72414;BME280;60995;52.154;4.498;2023-09-30T06:17:41;106109.34;;;15.57;100.00
72414;BME280;60995;52.154;4.498;2023-09-30T06:19:58;106153.03;;;15.96;100.00
72414;BME280;60995;52.154;4.498;2023-09-30T06:22:23;106116.00;;;15.83;100.00
72414;BME280;60995;52.154;4.498;2023-09-30T06:24:39;106101.44;;;15.79;100.00
72414;BME280;60995;52.154;4.498;2023-09-30T06:26:55;106063.81;;;15.53;100.00
72414;BME280;60995;52.154;4.498;2023-09-30T06:29:11;106053.81;;;15.52;100.00
72414;BME280;60995;52.154;4.498;2023-09-30T06:31:28;106051.63;;;15.65;100.00
72414;BME280;60995;52.154;4.498;2023-09-30T06:33:44;106030.59;;;15.65;100.00
72414;BME280;60995;52.154;4.498;2023-09-30T06:36:01;106009.56;;;15.67;100.00
72414;BME280;60995;52.154;4.498;2023-09-30T06:38:21;105996.00;;;15.63;100.00
72414;BME280;60995;52.154;4.498;2023-09-30T06:40:38;105971.28;;;15.64;100.00
72414;BME280;60995;52.154;4.498;2023-09-30T06:42:58;105979.97;;;15.80;100.00
72414;BME280;60995;52.154;4.498;2023-09-30T06:45:15;106008.81;;;15.94;100.00
72414;BME280;60995;52.154;4.498;2023-09-30T06:47:32;106019.78;;;15.94;100.00
72414;BME280;60995;52.154;4.498;2023-09-30T06:49:49;105939.47;;;16.20;100.00
72414;BME280;60995;52.154;4.498;2023-09-30T06:52:05;106030.88;;;16.19;100.00
72414;BME280;60995;52.154;4.498;2023-09-30T06:54:23;106020.47;;;16.30;100.00
72414;BME280;60995;52.154;4.498;2023-09-30T06:56:39;105997.72;;;16.28;100.00
72414;BME280;60995;52.154;4.498;2023-09-30T06:58:57;105962.31;;;16.20;100.00
72414;BME280;60995;52.154;4.498;2023-09-30T07:01:16;105930.19;;;16.26;100.00
72414;BME280;60995;52.154;4.498;2023-09-30T07:03:35;105899.72;;;16.07;100.00
72414;BME280;60995;52.154;4.498;2023-09-30T07:05:52;105860.75;;;15.97;100.00
72414;BME280;60995;52.154;4.498;2023-09-30T07:08:10;105882.19;;;16.12;100.00
72414;BME280;60995;52.154;4.498;2023-09-30T07:10:26;105892.81;;;16.21;100.00
72414;BME280;60995;52.154;4.498;2023-09-30T07:12:43;105890.44;;;16.39;100.00
72414;BME280;60995;52.154;4.498;2023-09-30T07:14:59;106062.47;;;18.17;100.00
72414;BME280;60995;52.154;4.498;2023-09-30T07:17:15;106236.31;;;20.67;100.00
72414;BME280;60995;52.154;4.498;2023-09-30T07:19:32;105866.97;;;22.68;100.00
72414;BME280;60995;52.154;4.498;2023-09-30T07:21:48;104757.50;;;23.60;100.00
72414;BME280;60995;52.154;4.498;2023-09-30T07:24:05;104110.03;;;24.07;100.00
72414;BME280;60995;52.154;4.498;2023-09-30T07:26:25;103475.09;;;23.33;100.00
72414;BME280;60995;52.154;4.498;2023-09-30T07:28:41;103370.06;;;21.74;100.00
72414;BME280;60995;52.154;4.498;2023-09-30T07:30:58;103445.44;;;20.57;100.00
72414;BME280;60995;52.154;4.498;2023-09-30T07:33:14;103587.50;;;20.73;100.00
72414;BME280;60995;52.154;4.498;2023-09-30T07:35:31;103618.63;;;20.32;100.00
72414;BME280;60995;52.154;4.498;2023-09-30T07:37:47;103682.09;;;19.89;100.00
72414;BME280;60995;52.154;4.498;2023-09-30T07:40:04;103721.44;;;19.23;100.00
72414;BME280;60995;52.154;4.498;2023-09-30T07:42:22;103782.97;;;18.63;100.00
72414;BME280;60995;52.154;4.498;2023-09-30T07:44:38;103865.78;;;18.34;100.00
72414;BME280;60995;52.154;4.498;2023-09-30T07:46:55;103942.97;;;18.31;100.00
72414;BME280;60995;52.154;4.498;2023-09-30T07:49:11;104022.03;;;18.02;100.00
72414;BME280;60995;52.154;4.498;2023-09-30T07:51:27;104106.56;;;17.98;100.00
72414;BME280;60995;52.154;4.498;2023-09-30T07:53:43;104184.84;;;17.91;100.00
72414;BME280;60995;52.154;4.498;2023-09-30T07:56:00;104304.66;;;17.94;100.00
72414;BME280;60995;52.154;4.498;2023-09-30T07:58:16;104348.13;;;18.01;100.00
72414;BME280;60995;52.154;4.498;2023-09-30T08:00:33;104383.00;;;18.28;100.00
72414;BME280;60995;52.154;4.498;2023-09-30T08:02:50;104377.69;;;18.94;100.00
72414;BME280;60995;52.154;4.498;2023-09-30T08:05:07;104386.28;;;20.91;100.00
72414;BME280;60995;52.154;4.498;2023-09-30T08:07:24;104046.53;;;22.75;100.00
72414;BME280;60995;52.154;4.498;2023-09-30T08:09:40;103683.34;;;24.20;100.00
72414;BME280;60995;52.154;4.498;2023-09-30T08:11:57;103491.00;;;25.89;100.00
72414;BME280;60995;52.154;4.498;2023-09-30T08:14:14;103321.59;;;26.11;100.00
72414;BME280;60995;52.154;4.498;2023-09-30T08:16:31;103237.03;;;26.67;100.00
72414;BME280;60995;52.154;4.498;2023-09-30T08:18:47;103111.09;;;26.95;100.00
72414;BME280;60995;52.154;4.498;2023-09-30T08:21:08;103005.97;;;27.18;100.00
72414;BME280;60995;52.154;4.498;2023-09-30T08:23:26;102758.94;;;29.51;100.00
72414;BME280;60995;52.154;4.498;2023-09-30T08:25:42;102595.63;;;28.53;100.00
72414;BME280;60995;52.154;4.498;2023-09-30T08:27:59;102610.63;;;27.02;100.00
72414;BME280;60995;52.154;4.498;2023-09-30T08:30:16;102655.84;;;24.38;100.00
72414;BME280;60995;52.154;4.498;2023-09-30T08:32:34;102730.09;;;25.20;100.00
72414;BME280;60995;52.154;4.498;2023-09-30T08:34:51;102672.47;;;26.25;100.00
72414;BME280;60995;52.154;4.498;2023-09-30T08:37:07;102674.50;;;24.90;100.00
72414;BME280;60995;52.154;4.498;2023-09-30T08:39:25;102743.78;;;23.58;100.00
72414;BME280;60995;52.154;4.498;2023-09-30T08:41:41;102834.84;;;22.27;100.00
72414;BME280;60995;52.154;4.498;2023-09-30T08:44:01;102964.06;;;21.19;100.00
72414;BME280;60995;52.154;4.498;2023-09-30T08:46:18;103095.50;;;20.92;100.00
72414;BME280;60995;52.154;4.498;2023-09-30T08:48:35;103182.16;;;21.09;100.00
72414;BME280;60995;52.154;4.498;2023-09-30T08:50:53;103231.75;;;20.42;100.00
72414;BME280;60995;52.154;4.498;2023-09-30T08:53:10;103304.88;;;20.36;100.00
72414;BME280;60995;52.154;4.498;2023-09-30T08:55:32;103376.31;;;20.49;100.00
72414;BME280;60995;52.154;4.498;2023-09-30T08:57:50;103419.22;;;19.80;100.00
72414;BME280;60995;52.154;4.498;2023-09-30T09:00:09;103499.38;;;19.56;100.00
72414;BME280;60995;52.154;4.498;2023-09-30T09:02:27;103612.78;;;19.61;100.00
72414;BME280;60995;52.154;4.498;2023-09-30T09:04:45;103718.31;;;19.61;100.00
72414;BME280;60995;52.154;4.498;2023-09-30T09:07:02;103809.19;;;19.73;100.00
72414;BME280;60995;52.154;4.498;2023-09-30T09:09:19;103879.84;;;19.74;100.00
72414;BME280;60995;52.154;4.498;2023-09-30T09:11:37;103907.66;;;20.05;100.00
72414;BME280;60995;52.154;4.498;2023-09-30T09:13:54;103877.59;;;20.02;100.00
72414;BME280;60995;52.154;4.498;2023-09-30T09:16:17;103862.06;;;19.78;100.00
72414;BME280;60995;52.154;4.498;2023-09-30T09:18:35;103853.28;;;20.18;100.00
72414;BME280;60995;52.154;4.498;2023-09-30T09:23:39;103682.97;;;22.56;100.00
72414;BME280;60995;52.154;4.498;2023-09-30T09:25:56;103333.25;;;26.15;100.00
72414;BME280;60995;52.154;4.498;2023-09-30T09:28:15;102883.69;;;27.30;100.00
72414;BME280;60995;52.154;4.498;2023-09-30T09:30:31;102780.75;;;27.50;100.00
72414;BME280;60995;52.154;4.498;2023-09-30T09:33:04;102682.44;;;29.05;100.00
72414;BME280;60995;52.154;4.498;2023-09-30T09:35:22;102649.72;;;29.19;100.00
72414;BME280;60995;52.154;4.498;2023-09-30T09:37:38;102671.41;;;26.70;100.00
72414;BME280;60995;52.154;4.498;2023-09-30T09:39:55;102707.13;;;25.71;100.00
72414;BME280;60995;52.154;4.498;2023-09-30T09:42:24;102690.69;;;26.06;100.00
72414;BME280;60995;52.154;4.498;2023-09-30T09:44:41;102672.00;;;27.15;100.00
72414;BME280;60995;52.154;4.498;2023-09-30T09:46:59;102625.63;;;29.32;100.00
72414;BME280;60995;52.154;4.498;2023-09-30T09:49:21;102593.53;;;29.86;100.00
72414;BME280;60995;52.154;4.498;2023-09-30T09:51:37;102600.47;;;30.41;100.00
72414;BME280;60995;52.154;4.498;2023-09-30T09:53:54;102632.66;;;30.00;100.00
72414;BME280;60995;52.154;4.498;2023-09-30T09:56:11;102642.47;;;29.70;100.00
72414;BME280;60995;52.154;4.498;2023-09-30T09:58:32;102649.25;;;30.84;100.00
72414;BME280;60995;52.154;4.498;2023-09-30T10:00:50;102646.81;;;30.69;100.00
72414;BME280;60995;52.154;4.498;2023-09-30T10:03:07;102636.13;;;30.59;100.00
72414;BME280;60995;52.154;4.498;2023-09-30T10:05:24;102628.66;;;29.30;100.00
72414;BME280;60995;52.154;4.498;2023-09-30T10:07:45;102624.22;;;28.62;100.00
72414;BME280;60995;52.154;4.498;2023-09-30T10:10:12;102625.59;;;27.01;100.00
72414;BME280;60995;52.154;4.498;2023-09-30T10:12:36;102597.94;;;25.78;100.00
72414;BME280;60995;52.154;4.498;2023-09-30T10:14:54;102606.91;;;25.13;100.00
72414;BME280;60995;52.154;4.498;2023-09-30T10:17:11;102603.78;;;24.02;100.00
72414;BME280;60995;52.154;4.498;2023-09-30T10:19:27;102599.94;;;23.40;100.00
72414;BME280;60995;52.154;4.498;2023-09-30T10:24:35;102613.47;;;22.62;100.00
72414;BME280;60995;52.154;4.498;2023-09-30T10:29:48;102680.28;;;22.00;100.00
72414;BME280;60995;52.154;4.498;2023-09-30T10:32:13;102698.97;;;22.14;100.00
72414;BME280;60995;52.154;4.498;2023-09-30T10:34:30;102691.09;;;23.18;100.00
72414;BME280;60995;52.154;4.498;2023-09-30T10:36:47;102640.63;;;24.34;100.00
72414;BME280;60995;52.154;4.498;2023-09-30T10:39:12;102603.50;;;25.41;100.00
72414;BME280;60995;52.154;4.498;2023-09-30T10:46:43;102619.50;;;26.34;100.00
72414;BME280;60995;52.154;4.498;2023-09-30T10:51:39;102656.53;;;24.17;100.00
72414;BME280;60995;52.154;4.498;2023-09-30T10:53:55;102651.25;;;23.11;100.00
72414;BME280;60995;52.154;4.498;2023-09-30T10:56:17;102652.53;;;22.75;100.00
72414;BME280;60995;52.154;4.498;2023-09-30T10:58:40;102653.91;;;22.79;100.00
72414;BME280;60995;52.154;4.498;2023-09-30T11:00:56;102668.94;;;22.93;100.00
72414;BME280;60995;52.154;4.498;2023-09-30T11:03:13;102671.38;;;22.47;100.00
72414;BME280;60995;52.154;4.498;2023-09-30T11:05:29;102665.84;;;22.80;100.00
72414;BME280;60995;52.154;4.498;2023-09-30T11:07:49;102651.84;;;22.49;100.00
72414;BME280;60995;52.154;4.498;2023-09-30T11:10:07;102640.03;;;23.04;100.00
72414;BME280;60995;52.154;4.498;2023-09-30T11:12:24;102632.34;;;23.39;100.00
72414;BME280;60995;52.154;4.498;2023-09-30T11:14:41;102640.41;;;25.26;100.00
72414;BME280;60995;52.154;4.498;2023-09-30T11:16:59;102664.22;;;26.11;100.00
72414;BME280;60995;52.154;4.498;2023-09-30T11:19:19;102709.75;;;26.24;100.00
72414;BME280;60995;52.154;4.498;2023-09-30T11:21:37;102735.72;;;24.74;100.00
72414;BME280;60995;52.154;4.498;2023-09-30T11:23:55;102734.28;;;24.00;100.00
72414;BME280;60995;52.154;4.498;2023-09-30T11:26:12;102735.69;;;23.88;100.00
72414;BME280;60995;52.154;4.498;2023-09-30T11:30:59;102741.75;;;23.35;100.00
72414;BME280;60995;52.154;4.498;2023-09-30T11:33:18;102748.84;;;22.80;100.00
72414;BME280;60995;52.154;4.498;2023-09-30T11:35:34;102738.47;;;22.57;100.00
72414;BME280;60995;52.154;4.498;2023-09-30T11:37:51;102732.06;;;22.40;100.00
72414;BME280;60995;52.154;4.498;2023-09-30T11:40:14;102726.56;;;22.57;100.00
72414;BME280;60995;52.154;4.498;2023-09-30T11:42:31;102715.63;;;22.55;100.00
72414;BME280;60995;52.154;4.498;2023-09-30T11:44:48;102717.75;;;22.70;100.00
72414;BME280;60995;52.154;4.498;2023-09-30T11:47:04;102702.19;;;22.69;100.00
72414;BME280;60995;52.154;4.498;2023-09-30T11:49:35;102698.69;;;22.50;100.00
72414;BME280;60995;52.154;4.498;2023-09-30T11:51:58;102677.63;;;22.49;100.00
72414;BME280;60995;52.154;4.498;2023-09-30T11:54:32;102669.41;;;21.98;100.00
72414;BME280;60995;52.154;4.498;2023-09-30T11:56:49;102672.41;;;22.46;100.00
72414;BME280;60995;52.154;4.498;2023-09-30T11:59:06;102672.59;;;22.69;100.00
72414;BME280;60995;52.154;4.498;2023-09-30T12:01:22;102669.31;;;22.82;100.00
72414;BME280;60995;52.154;4.498;2023-09-30T12:03:41;102669.97;;;23.09;100.00
72414;BME280;60995;52.154;4.498;2023-09-30T12:05:58;102673.00;;;23.47;100.00
72414;BME280;60995;52.154;4.498;2023-09-30T12:08:16;102673.22;;;23.69;100.00